Time;durP1;ratioP1;P1;durP2;ratioP2;P2;SDS_P1;SDS_P2;PMS_P1;PMS_P2;Temp;Humidity;BMP_temperature;BMP_pressure;BME280_temperature;BME280_humidity;BME280_pressure;Samples;Min_cycle;Max_cycle;Signal;HPM_P1;HPM_P2
2022/08/03 00:00:14;;;;;;;2.53;1.90;;;;;;;;;;5002819;28;20181;-81
2022/08/03 00:03:19;;;;;;;3.27;2.00;;;;;;;;;;5025333;28;20176;-83
2022/08/03 00:06:23;;;;;;;4.03;1.97;;;;;;;;;;5025340;28;20224;-83
2022/08/03 00:09:27;;;;;;;3.37;1.90;;;;;;;;;;5024813;28;20189;-82
2022/08/03 00:12:31;;;;;;;2.83;1.97;;;;;;;;;;5025081;28;20665;-82
2022/08/03 00:15:35;;;;;;;3.17;2.10;;;;;;;;;;5025421;28;20674;-82
2022/08/03 00:18:40;;;;;;;2.63;1.93;;;;;;;;;;5024627;28;20185;-82
2022/08/03 00:21:44;;;;;;;1.90;1.60;;;;;;;;;;5025065;28;20193;-81
2022/08/03 00:24:48;;;;;;;2.33;1.60;;;;;;;;;;5024674;28;20220;-83
2022/08/03 00:27:52;;;;;;;3.77;1.73;;;;;;;;;;5037220;28;20205;-81
2022/08/03 00:30:57;;;;;;;2.43;1.60;;;;;;;;;;5024898;28;20528;-81
2022/08/03 00:34:00;;;;;;;3.70;1.80;;;;;;;;;;5024437;28;20185;-82
2022/08/03 00:37:05;;;;;;;2.67;1.60;;;;;;;;;;5024440;28;20690;-81
2022/08/03 00:40:11;;;;;;;1.70;1.50;;;;;;;;;;5002191;28;20181;-81
2022/08/03 00:43:16;;;;;;;4.50;1.60;;;;;;;;;;4982790;28;20177;-81
2022/08/03 00:46:21;;;;;;;4.80;1.80;;;;;;;;;;5015143;28;20228;-81
2022/08/03 00:49:25;;;;;;;3.63;1.77;;;;;;;;;;5015575;28;20667;-82
2022/08/03 00:52:29;;;;;;;1.93;1.60;;;;;;;;;;5016816;28;20185;-82
2022/08/03 00:55:35;;;;;;;3.23;2.00;;;;;;;;;;5001268;28;20548;-82
2022/08/03 00:58:39;;;;;;;2.10;1.57;;;;;;;;;;5024524;28;20181;-82
2022/08/03 01:01:43;;;;;;;3.63;1.53;;;;;;;;;;5024215;28;20193;-82
2022/08/03 01:04:47;;;;;;;4.90;1.70;;;;;;;;;;5023912;28;20227;-82
2022/08/03 01:08:01;;;;;;;4.13;1.80;;;;;;;;;;4981829;28;20185;-82
2022/08/03 01:11:23;;;;;;;3.43;1.60;;;;;;;;;;4993175;28;20182;-81
2022/08/03 01:14:36;;;;;;;1.83;1.70;;;;;;;;;;5004067;28;20177;-81
2022/08/03 01:18:04;;;;;;;3.87;2.00;;;;;;;;;;5004265;28;20632;-81
2022/08/03 01:21:16;;;;;;;2.03;1.50;;;;;;;;;;4994920;28;20182;-81
2022/08/03 01:24:56;;;;;;;1.90;1.60;;;;;;;;;;5005834;28;20177;-81
2022/08/03 01:28:09;;;;;;;2.63;1.47;;;;;;;;;;4994136;28;20197;-81
2022/08/03 01:31:20;;;;;;;4.13;1.70;;;;;;;;;;4988651;28;20201;-82
2022/08/03 01:34:30;;;;;;;2.77;2.00;;;;;;;;;;5024624;28;20185;-81
2022/08/03 01:37:39;;;;;;;2.30;1.70;;;;;;;;;;4992742;28;20181;-81
2022/08/03 01:40:45;;;;;;;2.70;1.70;;;;;;;;;;5004802;28;20194;-81
2022/08/03 01:43:52;;;;;;;3.40;1.80;;;;;;;;;;5003761;28;20197;-82
2022/08/03 01:46:59;;;;;;;3.13;1.83;;;;;;;;;;5003711;28;20589;-81
2022/08/03 01:50:04;;;;;;;4.77;1.90;;;;;;;;;;5004770;28;20189;-81
2022/08/03 01:53:09;;;;;;;2.30;1.83;;;;;;;;;;4992604;28;20664;-81
2022/08/03 01:56:16;;;;;;;2.07;1.43;;;;;;;;;;5003577;28;20213;-81
2022/08/03 01:59:21;;;;;;;3.70;1.87;;;;;;;;;;5004174;28;20182;-81
2022/08/03 02:02:26;;;;;;;3.30;1.97;;;;;;;;;;5034734;28;20189;-81
2022/08/03 02:05:32;;;;;;;2.17;1.60;;;;;;;;;;5013230;28;20224;-82
2022/08/03 02:08:39;;;;;;;2.23;1.60;;;;;;;;;;5011992;28;20181;-82
2022/08/03 02:11:44;;;;;;;2.47;1.77;;;;;;;;;;5022222;28;20196;-82
2022/08/03 02:14:50;;;;;;;3.73;1.80;;;;;;;;;;5022109;28;20197;-80
2022/08/03 02:17:57;;;;;;;2.53;1.70;;;;;;;;;;5033092;28;20196;-80
2022/08/03 02:21:03;;;;;;;3.00;1.97;;;;;;;;;;5022368;28;20177;-82
2022/08/03 02:24:08;;;;;;;2.73;1.70;;;;;;;;;;5022258;28;20196;-81
2022/08/03 02:27:19;;;;;;;2.10;1.80;;;;;;;;;;5034260;28;20647;-80
2022/08/03 02:30:30;;;;;;;3.17;1.73;;;;;;;;;;5022002;28;20189;-82
2022/08/03 02:33:40;;;;;;;2.30;1.60;;;;;;;;;;5010634;28;20189;-80
2022/08/03 02:36:49;;;;;;;2.00;1.73;;;;;;;;;;5022113;28;20216;-81
2022/08/03 02:39:59;;;;;;;6.13;1.90;;;;;;;;;;4999787;28;20177;-81
2022/08/03 02:43:09;;;;;;;2.10;1.70;;;;;;;;;;5022003;28;20640;-80
2022/08/03 02:46:18;;;;;;;1.93;1.53;;;;;;;;;;5021958;28;20575;-80
2022/08/03 02:49:24;;;;;;;2.07;1.70;;;;;;;;;;5022225;28;20521;-80
2022/08/03 02:52:31;;;;;;;2.20;1.70;;;;;;;;;;5022184;28;20647;-80
2022/08/03 02:55:36;;;;;;;2.47;1.60;;;;;;;;;;5021723;28;20217;-80
2022/08/03 02:58:42;;;;;;;2.37;1.70;;;;;;;;;;5022241;28;20185;-81
2022/08/03 03:01:47;;;;;;;2.07;1.50;;;;;;;;;;5021731;28;20196;-80
2022/08/03 03:04:54;;;;;;;2.10;1.80;;;;;;;;;;4999595;28;20204;-80
2022/08/03 03:07:58;;;;;;;2.43;1.70;;;;;;;;;;4999812;28;20173;-81
2022/08/03 03:11:03;;;;;;;2.50;1.70;;;;;;;;;;4980481;28;20644;-80
2022/08/03 03:14:09;;;;;;;3.00;2.17;;;;;;;;;;4991030;28;20181;-80
2022/08/03 03:17:15;;;;;;;2.13;1.90;;;;;;;;;;5002305;28;20633;-80
2022/08/03 03:20:21;;;;;;;2.27;1.83;;;;;;;;;;5013470;28;20190;-80
2022/08/03 03:23:27;;;;;;;2.10;1.90;;;;;;;;;;4991725;28;20178;-80
2022/08/03 03:26:33;;;;;;;2.97;2.03;;;;;;;;;;4985753;28;20217;-80
2022/08/03 03:29:37;;;;;;;4.43;1.90;;;;;;;;;;5023379;28;20211;-80
2022/08/03 03:32:41;;;;;;;2.93;2.07;;;;;;;;;;5003143;28;20185;-80
2022/08/03 03:35:45;;;;;;;4.03;1.87;;;;;;;;;;5025257;28;20216;-80
2022/08/03 03:38:50;;;;;;;4.73;1.97;;;;;;;;;;5025046;28;20189;-81
2022/08/03 03:41:54;;;;;;;7.43;2.13;;;;;;;;;;5013821;28;20185;-80
2022/08/03 03:44:58;;;;;;;4.00;1.87;;;;;;;;;;5006599;28;20189;-81
2022/08/03 03:48:06;;;;;;;4.47;1.80;;;;;;;;;;4996190;28;20177;-81
2022/08/03 03:51:10;;;;;;;4.40;1.67;;;;;;;;;;5019072;28;20181;-81
2022/08/03 03:54:14;;;;;;;2.20;1.70;;;;;;;;;;5007812;28;20178;-82
2022/08/03 03:57:18;;;;;;;4.03;2.10;;;;;;;;;;5007872;28;20182;-81
2022/08/03 04:00:23;;;;;;;4.30;2.00;;;;;;;;;;5026537;28;20184;-82
2022/08/03 04:03:27;;;;;;;2.47;1.80;;;;;;;;;;5018082;28;20197;-81
2022/08/03 04:13:20;;;;;;;6.03;1.97;;;;;;;;;;5026613;28;20197;-81
2022/08/03 04:16:28;;;;;;;4.17;2.20;;;;;;;;;;5003529;28;20564;-83
2022/08/03 04:19:39;;;;;;;3.57;2.40;;;;;;;;;;5025147;28;20636;-82
2022/08/03 04:22:46;;;;;;;3.57;2.13;;;;;;;;;;5003129;28;20177;-82
2022/08/03 04:25:53;;;;;;;4.43;2.27;;;;;;;;;;5032836;28;20213;-83
2022/08/03 04:28:59;;;;;;;3.20;2.00;;;;;;;;;;5008281;28;20204;-82
2022/08/03 04:32:05;;;;;;;5.97;1.70;;;;;;;;;;5021180;28;20189;-82
2022/08/03 04:35:09;;;;;;;3.27;2.03;;;;;;;;;;5015841;28;20225;-82
2022/08/03 04:38:17;;;;;;;3.20;1.87;;;;;;;;;;5018178;28;20189;-83
2022/08/03 04:41:25;;;;;;;3.13;2.13;;;;;;;;;;5004814;28;20182;-82
2022/08/03 04:44:34;;;;;;;16.33;2.40;;;;;;;;;;4993872;28;20174;-82
2022/08/03 04:47:39;;;;;;;3.90;1.87;;;;;;;;;;4993401;28;20213;-82
2022/08/03 04:50:43;;;;;;;5.17;2.07;;;;;;;;;;5004726;28;20186;-82
2022/08/03 04:53:47;;;;;;;4.50;2.57;;;;;;;;;;4998207;28;20181;-82
2022/08/03 04:56:51;;;;;;;7.83;2.20;;;;;;;;;;5023739;28;20213;-83
2022/08/03 04:59:56;;;;;;;3.40;1.93;;;;;;;;;;5036165;28;20189;-82
2022/08/03 05:03:00;;;;;;;6.97;2.63;;;;;;;;;;5012953;28;20532;-82
2022/08/03 05:06:05;;;;;;;3.50;2.50;;;;;;;;;;5004662;28;20221;-83
2022/08/03 05:09:09;;;;;;;7.43;2.57;;;;;;;;;;5020035;28;20204;-83
2022/08/03 05:12:13;;;;;;;5.03;2.50;;;;;;;;;;5024145;28;20176;-82
2022/08/03 05:15:17;;;;;;;6.07;2.40;;;;;;;;;;5023645;28;20216;-82
2022/08/03 05:18:21;;;;;;;5.17;2.00;;;;;;;;;;5002224;28;20177;-82
2022/08/03 05:21:25;;;;;;;5.20;2.37;;;;;;;;;;5004050;28;20201;-83
2022/08/03 05:24:29;;;;;;;4.17;2.10;;;;;;;;;;4998591;28;20197;-83
2022/08/03 05:27:34;;;;;;;3.47;2.00;;;;;;;;;;5023893;28;20201;-87
2022/08/03 05:30:38;;;;;;;3.43;1.83;;;;;;;;;;5024470;28;20180;-85
2022/08/03 05:33:43;;;;;;;3.27;2.33;;;;;;;;;;5002098;28;20181;-85
2022/08/03 05:36:47;;;;;;;2.40;2.20;;;;;;;;;;5001281;28;20683;-85
2022/08/03 05:39:52;;;;;;;4.07;1.83;;;;;;;;;;4983101;28;20186;-85
2022/08/03 05:42:56;;;;;;;2.83;2.37;;;;;;;;;;4992462;28;20193;-86
2022/08/03 05:45:59;;;;;;;2.30;1.83;;;;;;;;;;5003813;28;20221;-86
2022/08/03 05:49:04;;;;;;;4.70;2.17;;;;;;;;;;5004410;28;20182;-85
2022/08/03 05:52:08;;;;;;;6.77;2.73;;;;;;;;;;5027409;28;20204;-86
2022/08/03 05:55:12;;;;;;;3.10;2.23;;;;;;;;;;5004337;28;20221;-86
2022/08/03 05:58:16;;;;;;;2.30;2.00;;;;;;;;;;5004075;28;20217;-87
2022/08/03 06:01:21;;;;;;;2.37;2.17;;;;;;;;;;5004281;28;20177;-86
2022/08/03 06:04:25;;;;;;;3.43;2.17;;;;;;;;;;5002535;28;20516;-86
2022/08/03 06:07:29;;;;;;;2.53;2.00;;;;;;;;;;4991316;28;20209;-85
2022/08/03 06:10:33;;;;;;;4.03;2.47;;;;;;;;;;5007276;28;20208;-86
2022/08/03 06:13:38;;;;;;;3.43;2.27;;;;;;;;;;5016216;28;20200;-85
2022/08/03 06:16:41;;;;;;;4.00;2.40;;;;;;;;;;5022196;28;20208;-86
2022/08/03 06:19:46;;;;;;;2.57;2.17;;;;;;;;;;5033877;28;20185;-86
2022/08/03 06:22:50;;;;;;;5.07;2.40;;;;;;;;;;5021755;28;20639;-86
2022/08/03 06:25:54;;;;;;;4.37;2.43;;;;;;;;;;5021729;28;20220;-86
2022/08/03 06:28:58;;;;;;;3.27;2.50;;;;;;;;;;4991038;28;20193;-86
2022/08/03 06:32:02;;;;;;;3.10;2.30;;;;;;;;;;4998931;28;20204;-86
2022/08/03 06:35:08;;;;;;;4.37;2.57;;;;;;;;;;5021833;28;20217;-85
2022/08/03 06:38:12;;;;;;;4.00;2.17;;;;;;;;;;5024133;28;20181;-85
2022/08/03 06:41:16;;;;;;;3.13;2.40;;;;;;;;;;5021551;28;20176;-86
2022/08/03 06:44:20;;;;;;;5.23;2.20;;;;;;;;;;5021539;28;20188;-86
2022/08/03 06:47:24;;;;;;;2.87;2.10;;;;;;;;;;4998794;28;20201;-86
2022/08/03 06:50:28;;;;;;;4.47;2.63;;;;;;;;;;5010426;28;20177;-86
2022/08/03 06:53:32;;;;;;;4.73;2.63;;;;;;;;;;5021233;28;20181;-86
2022/08/03 06:56:37;;;;;;;2.87;2.40;;;;;;;;;;4998890;28;20208;-86
2022/08/03 06:59:41;;;;;;;4.47;2.23;;;;;;;;;;4999095;28;20184;-85
2022/08/03 07:02:45;;;;;;;3.57;2.20;;;;;;;;;;5010010;28;20180;-86
2022/08/03 07:05:50;;;;;;;3.40;1.93;;;;;;;;;;5002548;28;20219;-86
2022/08/03 07:08:55;;;;;;;3.40;2.10;;;;;;;;;;5025160;28;20169;-86
2022/08/03 07:12:01;;;;;;;3.33;2.30;;;;;;;;;;5025133;28;20200;-86
2022/08/03 07:15:06;;;;;;;9.03;2.40;;;;;;;;;;5002671;28;20220;-86
2022/08/03 07:18:10;;;;;;;13.33;2.50;;;;;;;;;;5002374;28;20189;-87
2022/08/03 07:21:15;;;;;;;6.20;2.03;;;;;;;;;;5002665;28;20192;-86
2022/08/03 07:24:20;;;;;;;2.53;2.03;;;;;;;;;;5025065;28;20181;-86
2022/08/03 07:27:25;;;;;;;6.30;1.97;;;;;;;;;;5002732;28;20208;-85
2022/08/03 07:30:29;;;;;;;34.93;4.07;;;;;;;;;;5016082;28;20215;-86
2022/08/03 07:33:34;;;;;;;23.97;2.20;;;;;;;;;;4997775;28;20208;-85
2022/08/03 07:36:38;;;;;;;3.17;1.80;;;;;;;;;;5031053;28;20224;-86
2022/08/03 07:39:42;;;;;;;1.97;1.77;;;;;;;;;;5024510;28;20637;-86
2022/08/03 07:42:46;;;;;;;3.70;1.77;;;;;;;;;;4997909;28;20197;-86
2022/08/03 07:45:50;;;;;;;3.60;1.67;;;;;;;;;;5016523;28;20225;-86
2022/08/03 07:48:54;;;;;;;4.00;2.00;;;;;;;;;;5013095;28;20175;-87
2022/08/03 07:55:23;;;;;;;2.77;1.33;;;;;;;;;;5004421;28;20224;-86
2022/08/03 07:58:27;;;;;;;5.53;1.55;;;;;;;;;;5016130;28;20170;-86
2022/08/03 08:01:35;;;;;;;3.25;2.22;;;;;;;;;;5006842;28;20200;-85
2022/08/03 08:04:40;;;;;;;4.43;3.97;;;;;;;;;;5014285;28;20195;-87
2022/08/03 08:07:44;;;;;;;2.45;1.27;;;;;;;;;;5023577;28;20207;-86
2022/08/03 08:10:48;;;;;;;1.45;1.20;;;;;;;;;;5000971;28;20546;-87
2022/08/03 08:13:52;;;;;;;3.35;1.25;;;;;;;;;;5023525;28;20211;-88
2022/08/03 08:16:56;;;;;;;7.13;1.25;;;;;;;;;;5022745;28;20683;-88
2022/08/03 08:20:01;;;;;;;0.95;0.88;;;;;;;;;;5000953;28;20189;-87
2022/08/03 08:23:07;;;;;;;3.10;0.85;;;;;;;;;;5012487;28;20666;-89
2022/08/03 08:26:11;;;;;;;2.60;0.98;;;;;;;;;;5000919;28;20231;-87
2022/08/03 08:29:15;;;;;;;3.00;1.00;;;;;;;;;;5012601;28;20188;-88
2022/08/03 08:32:23;;;;;;;1.48;1.02;;;;;;;;;;4993751;28;20186;-92
2022/08/03 08:35:27;;;;;;;1.95;0.90;;;;;;;;;;5000632;28;20209;-87
2022/08/03 08:38:34;;;;;;;4.03;1.15;;;;;;;;;;5023004;28;20182;-87
2022/08/03 08:41:37;;;;;;;2.08;1.20;;;;;;;;;;5023329;28;20185;-87
2022/08/03 08:44:41;;;;;;;3.47;1.10;;;;;;;;;;5000341;28;20173;-87
2022/08/03 08:47:48;;;;;;;7.63;1.23;;;;;;;;;;5029083;23;20234;-88
2022/08/03 08:50:54;;;;;;;13.15;1.80;;;;;;;;;;4999800;28;20194;-87
2022/08/03 08:54:01;;;;;;;1.52;0.90;;;;;;;;;;4987489;28;20598;-88
2022/08/03 08:57:07;;;;;;;1.48;1.20;;;;;;;;;;4995118;28;20210;-88
2022/08/03 09:00:15;;;;;;;2.35;1.08;;;;;;;;;;5006212;28;20652;-88
2022/08/03 09:03:19;;;;;;;1.33;1.20;;;;;;;;;;4984032;28;20183;-88
2022/08/03 09:06:23;;;;;;;5.45;1.10;;;;;;;;;;4981782;28;20226;-88
2022/08/03 09:09:28;;;;;;;2.13;0.98;;;;;;;;;;4964529;28;20171;-88
2022/08/03 09:12:37;;;;;;;4.32;1.10;;;;;;;;;;4964329;28;20188;-88
2022/08/03 09:15:41;;;;;;;3.33;0.93;;;;;;;;;;4991711;28;20541;-88
2022/08/03 09:18:51;;;;;;;1.15;0.80;;;;;;;;;;4964458;28;20179;-88
2022/08/03 09:22:16;;;;;;;1.88;0.82;;;;;;;;;;4975499;28;20179;-88
2022/08/03 09:25:26;;;;;;;1.25;0.73;;;;;;;;;;4975539;28;20183;-88
2022/08/03 09:28:34;;;;;;;2.30;0.90;;;;;;;;;;4964150;28;20207;-88
2022/08/03 09:31:43;;;;;;;64.90;5.43;;;;;;;;;;4963757;28;20206;-88
2022/08/03 09:34:49;;;;;;;3.50;1.20;;;;;;;;;;4976803;28;20199;-88
2022/08/03 09:38:13;;;;;;;0.70;0.70;;;;;;;;;;4974915;28;20570;-89
2022/08/03 09:41:18;;;;;;;10.57;1.45;;;;;;;;;;4974679;28;20195;-88
2022/08/03 09:44:33;;;;;;;9.60;1.67;;;;;;;;;;4993929;28;20189;-88
2022/08/03 09:47:38;;;;;;;8.63;1.30;;;;;;;;;;4982585;28;20222;-88
2022/08/03 09:50:49;;;;;;;19.13;1.83;;;;;;;;;;4993971;28;20551;-88
2022/08/03 09:53:58;;;;;;;5.35;1.25;;;;;;;;;;4971544;28;20195;-88
2022/08/03 09:57:02;;;;;;;1.45;0.88;;;;;;;;;;4982827;28;20214;-88
2022/08/03 10:00:15;;;;;;;8.88;1.63;;;;;;;;;;4963589;28;20187;-88
2022/08/03 10:03:19;;;;;;;2.63;0.93;;;;;;;;;;4986070;28;20191;-88
2022/08/03 10:06:24;;;;;;;15.07;1.83;;;;;;;;;;4974348;28;20222;-88
2022/08/03 10:09:28;;;;;;;2.10;0.93;;;;;;;;;;4974639;28;20581;-88
2022/08/03 10:12:33;;;;;;;1.95;1.17;;;;;;;;;;4963667;28;20522;-88
2022/08/03 10:15:39;;;;;;;3.88;1.38;;;;;;;;;;4974521;28;20179;-88
2022/08/03 10:18:43;;;;;;;3.88;1.20;;;;;;;;;;4974089;28;20175;-88
2022/08/03 10:22:02;;;;;;;6.63;1.10;;;;;;;;;;4974139;28;20530;-88
2022/08/03 10:25:10;;;;;;;1.85;1.20;;;;;;;;;;4985495;28;20192;-88
2022/08/03 10:28:18;;;;;;;2.58;0.95;;;;;;;;;;4985560;28;20314;-88
2022/08/03 10:31:23;;;;;;;4.13;1.10;;;;;;;;;;4973903;28;20188;-88
2022/08/03 10:34:33;;;;;;;1.27;0.95;;;;;;;;;;4974468;28;20180;-88
2022/08/03 10:37:43;;;;;;;1.35;0.90;;;;;;;;;;4963286;28;20210;-88
2022/08/03 10:40:50;;;;;;;2.15;1.02;;;;;;;;;;4991820;28;20534;-89
2022/08/03 10:44:00;;;;;;;1.95;0.93;;;;;;;;;;4988283;28;20197;-88
2022/08/03 10:47:04;;;;;;;2.58;0.90;;;;;;;;;;4988601;28;20226;-89
2022/08/03 10:50:10;;;;;;;2.35;1.00;;;;;;;;;;4988677;28;20178;-88
2022/08/03 10:53:14;;;;;;;1.00;0.90;;;;;;;;;;4988552;28;20545;-88
2022/08/03 10:59:58;;;;;;;1.83;0.95;;;;;;;;;;4989132;28;20613;-88
2022/08/03 11:03:09;;;;;;;10.60;1.60;;;;;;;;;;4973633;28;20186;-88
2022/08/03 11:06:17;;;;;;;1.90;0.90;;;;;;;;;;4988602;28;20186;-88
2022/08/03 11:09:21;;;;;;;1.30;1.17;;;;;;;;;;4988552;28;20214;-88
2022/08/03 11:12:27;;;;;;;2.65;1.00;;;;;;;;;;4999495;28;20187;-88
2022/08/03 11:15:33;;;;;;;2.03;1.10;;;;;;;;;;4977662;28;20186;-88
2022/08/03 11:18:55;;;;;;;1.35;1.00;;;;;;;;;;4988467;28;20178;-88
2022/08/03 11:21:59;;;;;;;1.67;0.93;;;;;;;;;;4988468;28;20182;-88
2022/08/03 11:25:04;;;;;;;1.65;1.00;;;;;;;;;;4988425;28;20668;-88
2022/08/03 11:28:25;;;;;;;1.60;1.05;;;;;;;;;;4988371;28;20222;-88
2022/08/03 11:31:29;;;;;;;64.85;6.20;;;;;;;;;;4997287;28;20183;-88
2022/08/03 11:35:20;;;;;;;21.27;2.10;;;;;;;;;;4987529;28;20213;-87
2022/08/03 11:38:24;;;;;;;23.75;2.45;;;;;;;;;;4999716;28;20225;-88
2022/08/03 11:41:33;;;;;;;9.20;1.45;;;;;;;;;;4987833;28;20207;-87
2022/08/03 11:44:40;;;;;;;4.28;1.05;;;;;;;;;;4998981;28;20183;-87
2022/08/03 11:47:45;;;;;;;6.03;3.35;;;;;;;;;;4976868;28;20234;-87
2022/08/03 11:50:48;;;;;;;1.10;1.00;;;;;;;;;;4997621;28;20187;-87
2022/08/03 11:53:59;;;;;;;1.55;1.30;;;;;;;;;;4996171;28;20186;-87
2022/08/03 11:57:03;;;;;;;4.53;1.10;;;;;;;;;;4996366;28;20688;-87
2022/08/03 12:00:29;;;;;;;3.95;1.02;;;;;;;;;;4974079;28;20625;-87
2022/08/03 12:03:34;;;;;;;3.67;0.95;;;;;;;;;;4985185;28;20183;-87
2022/08/03 12:06:53;;;;;;;3.20;1.20;;;;;;;;;;4995600;28;20222;-87
2022/08/03 12:10:12;;;;;;;3.58;1.17;;;;;;;;;;4984851;28;20207;-86
2022/08/03 12:13:18;;;;;;;7.68;1.48;;;;;;;;;;4977019;28;20638;-87
2022/08/03 12:16:23;;;;;;;1.55;1.00;;;;;;;;;;4976577;28;20689;-87
2022/08/03 12:19:40;;;;;;;1.10;1.00;;;;;;;;;;4987582;28;20183;-87
2022/08/03 12:22:45;;;;;;;3.50;1.25;;;;;;;;;;4965518;28;20187;-87
2022/08/03 12:25:49;;;;;;;2.20;1.10;;;;;;;;;;4989561;28;20180;-87
2022/08/03 12:28:53;;;;;;;2.35;1.27;;;;;;;;;;4995635;28;20676;-87
2022/08/03 12:31:57;;;;;;;14.80;1.67;;;;;;;;;;4995650;28;20202;-87
2022/08/03 12:35:04;;;;;;;14.65;1.88;;;;;;;;;;4995222;28;20174;-87
2022/08/03 12:38:10;;;;;;;4.80;1.88;;;;;;;;;;4995138;28;20226;-87
2022/08/03 12:41:15;;;;;;;3.90;1.42;;;;;;;;;;4995506;28;20557;-87
2022/08/03 12:44:33;;;;;;;1.10;0.98;;;;;;;;;;5006139;28;20202;-86
2022/08/03 12:47:58;;;;;;;2.38;0.90;;;;;;;;;;4994823;28;20230;-86
2022/08/03 12:51:09;;;;;;;2.50;1.25;;;;;;;;;;4984151;28;20626;-86
2022/08/03 12:54:21;;;;;;;2.88;1.10;;;;;;;;;;4972805;28;20190;-86
2022/08/03 12:57:40;;;;;;;4.97;1.60;;;;;;;;;;4972739;28;20549;-86
2022/08/03 13:00:54;;;;;;;4.35;1.08;;;;;;;;;;4983754;28;20194;-86
2022/08/03 13:03:58;;;;;;;1.23;0.90;;;;;;;;;;4994749;28;20549;-87
2022/08/03 13:07:05;;;;;;;1.90;0.90;;;;;;;;;;4972770;28;20680;-86
2022/08/03 13:10:10;;;;;;;3.55;0.90;;;;;;;;;;4983405;28;20214;-86
2022/08/03 13:13:14;;;;;;;1.70;0.98;;;;;;;;;;4983227;28;20178;-86
2022/08/03 13:16:20;;;;;;;1.10;1.00;;;;;;;;;;4993819;28;20183;-85
2022/08/03 13:19:27;;;;;;;5.82;1.23;;;;;;;;;;4971965;28;20179;-86
2022/08/03 13:22:32;;;;;;;2.70;1.17;;;;;;;;;;4972663;28;20179;-86
2022/08/03 13:25:36;;;;;;;11.32;1.38;;;;;;;;;;4983426;28;20659;-86
2022/08/03 13:28:40;;;;;;;3.67;0.95;;;;;;;;;;4983192;28;20222;-86
2022/08/03 13:31:44;;;;;;;1.10;1.00;;;;;;;;;;4983531;28;20261;-86
2022/08/03 13:34:49;;;;;;;4.45;1.30;;;;;;;;;;4983267;28;20182;-86
2022/08/03 13:37:53;;;;;;;2.10;0.90;;;;;;;;;;4983077;28;20217;-86
2022/08/03 13:40:58;;;;;;;4.03;1.17;;;;;;;;;;4971994;28;20170;-86
2022/08/03 13:44:02;;;;;;;1.10;0.90;;;;;;;;;;4983521;28;20186;-86
2022/08/03 13:47:06;;;;;;;1.02;0.90;;;;;;;;;;4982915;28;20221;-86
2022/08/03 13:50:10;;;;;;;3.70;1.00;;;;;;;;;;4971738;28;20206;-86
2022/08/03 13:53:14;;;;;;;24.80;2.80;;;;;;;;;;4972054;28;20182;-87
2022/08/03 13:56:18;;;;;;;2.05;0.90;;;;;;;;;;4983257;28;20186;-86
2022/08/03 13:59:23;;;;;;;4.10;0.90;;;;;;;;;;4993737;28;20194;-86
2022/08/03 14:02:27;;;;;;;3.38;2.10;;;;;;;;;;4972180;28;20186;-86
2022/08/03 14:05:32;;;;;;;1.98;1.10;;;;;;;;;;4983065;28;20520;-86
2022/08/03 14:08:36;;;;;;;2.30;0.90;;;;;;;;;;4971500;28;20179;-87
2022/08/03 14:11:42;;;;;;;0.77;0.77;;;;;;;;;;4982952;28;20186;-87
2022/08/03 14:14:46;;;;;;;2.75;1.10;;;;;;;;;;4981641;28;20525;-87
2022/08/03 14:17:50;;;;;;;1.80;0.80;;;;;;;;;;4971384;28;20282;-86
2022/08/03 14:20:55;;;;;;;1.80;1.00;;;;;;;;;;4971381;28;20183;-87
2022/08/03 14:23:59;;;;;;;1.50;0.88;;;;;;;;;;4982613;28;20182;-87
2022/08/03 14:27:03;;;;;;;2.80;1.02;;;;;;;;;;4970558;28;20218;-85
2022/08/03 14:30:07;;;;;;;3.38;1.00;;;;;;;;;;4977795;28;20209;-85
2022/08/03 14:33:11;;;;;;;1.77;0.90;;;;;;;;;;4963003;28;20250;-85
2022/08/03 14:36:16;;;;;;;9.90;1.17;;;;;;;;;;4969641;28;20190;-86
2022/08/03 14:39:20;;;;;;;5.22;1.08;;;;;;;;;;4972317;28;20542;-86
2022/08/03 14:42:24;;;;;;;1.45;0.90;;;;;;;;;;4971607;28;20186;-86
2022/08/03 14:45:28;;;;;;;2.58;1.02;;;;;;;;;;4994290;28;20178;-86
2022/08/03 14:48:32;;;;;;;4.68;0.93;;;;;;;;;;5023130;23;20233;-86
2022/08/03 14:51:36;;;;;;;1.10;1.00;;;;;;;;;;5022657;28;20209;-85
2022/08/03 14:54:40;;;;;;;1.80;0.90;;;;;;;;;;4979096;28;20181;-86
2022/08/03 14:57:44;;;;;;;2.67;0.90;;;;;;;;;;5001634;28;20221;-86
2022/08/03 15:00:50;;;;;;;11.73;1.52;;;;;;;;;;5013185;28;20186;-86
2022/08/03 15:03:54;;;;;;;7.45;1.38;;;;;;;;;;5001648;28;20189;-86
2022/08/03 15:06:58;;;;;;;22.42;1.88;;;;;;;;;;5016627;28;20221;-84
2022/08/03 15:10:02;;;;;;;2.22;1.00;;;;;;;;;;5020783;28;20208;-83
2022/08/03 15:13:06;;;;;;;3.97;1.10;;;;;;;;;;4998355;28;20194;-86
2022/08/03 15:16:10;;;;;;;1.77;1.00;;;;;;;;;;4998182;28;20177;-84
2022/08/03 15:19:15;;;;;;;1.23;0.80;;;;;;;;;;5020754;28;20185;-85
2022/08/03 15:22:20;;;;;;;2.17;0.73;;;;;;;;;;5020740;28;20180;-86
2022/08/03 15:25:24;;;;;;;3.40;0.90;;;;;;;;;;5022101;28;20656;-86
2022/08/03 15:28:28;;;;;;;0.82;0.80;;;;;;;;;;5012844;28;20220;-86
2022/08/03 15:31:32;;;;;;;1.50;0.80;;;;;;;;;;5024014;28;20169;-86
2022/08/03 15:34:36;;;;;;;1.77;0.82;;;;;;;;;;5002040;28;20181;-86
2022/08/03 15:37:41;;;;;;;2.80;0.93;;;;;;;;;;5023874;28;20695;-87
2022/08/03 15:40:45;;;;;;;0.82;0.63;;;;;;;;;;4982288;28;20182;-86
2022/08/03 15:43:51;;;;;;;2.05;0.82;;;;;;;;;;4988352;28;20197;-86
2022/08/03 15:46:55;;;;;;;1.40;0.98;;;;;;;;;;5004102;28;20639;-85
2022/08/03 15:49:59;;;;;;;2.25;0.95;;;;;;;;;;4993240;28;20561;-86
2022/08/03 15:53:04;;;;;;;4.90;1.00;;;;;;;;;;5004232;28;20549;-85
2022/08/03 15:56:09;;;;;;;1.10;0.90;;;;;;;;;;5004022;28;20201;-86
2022/08/03 15:59:13;;;;;;;6.65;1.00;;;;;;;;;;5004234;28;20198;-85
2022/08/03 16:02:17;;;;;;;3.60;0.95;;;;;;;;;;5003645;28;20198;-85
2022/08/03 16:05:24;;;;;;;2.83;0.90;;;;;;;;;;5015104;28;20178;-85
2022/08/03 16:08:29;;;;;;;3.60;1.15;;;;;;;;;;5004052;28;20218;-85
2022/08/03 16:11:33;;;;;;;1.38;0.90;;;;;;;;;;4992768;28;20653;-86
2022/08/03 16:14:37;;;;;;;1.02;0.90;;;;;;;;;;4981280;28;20186;-87
2022/08/03 16:17:41;;;;;;;1.35;0.95;;;;;;;;;;4992752;28;20213;-86
2022/08/03 16:20:46;;;;;;;1.10;1.00;;;;;;;;;;4981716;28;20248;-85
2022/08/03 16:23:50;;;;;;;1.77;1.00;;;;;;;;;;5002411;28;20644;-86
2022/08/03 16:26:55;;;;;;;7.22;1.40;;;;;;;;;;5023146;28;20217;-86
2022/08/03 16:29:59;;;;;;;9.50;1.23;;;;;;;;;;4992525;28;20198;-86
2022/08/03 16:33:03;;;;;;;7.22;1.20;;;;;;;;;;5003502;28;20190;-85
2022/08/03 16:36:07;;;;;;;1.27;0.82;;;;;;;;;;5003085;28;20182;-86
2022/08/03 16:39:11;;;;;;;6.18;0.95;;;;;;;;;;5003214;28;20182;-85
2022/08/03 16:42:16;;;;;;;3.13;0.98;;;;;;;;;;5003721;28;20182;-85
2022/08/03 16:45:20;;;;;;;6.97;1.08;;;;;;;;;;4980729;28;20182;-85
2022/08/03 16:48:24;;;;;;;5.25;1.00;;;;;;;;;;5025189;28;20710;-85
2022/08/03 16:51:28;;;;;;;1.63;1.20;;;;;;;;;;5014607;28;20213;-85
2022/08/03 16:54:32;;;;;;;4.18;1.00;;;;;;;;;;4992184;28;20182;-86
2022/08/03 16:57:36;;;;;;;4.50;1.33;;;;;;;;;;4980605;28;20225;-86
2022/08/03 17:00:41;;;;;;;6.50;1.15;;;;;;;;;;5002837;28;20186;-84
2022/08/03 17:03:47;;;;;;;8.05;1.20;;;;;;;;;;5003250;28;20186;-83
2022/08/03 17:06:52;;;;;;;2.42;1.35;;;;;;;;;;4998064;28;20209;-85
2022/08/03 17:09:56;;;;;;;8.77;1.60;;;;;;;;;;5034192;28;20663;-84
2022/08/03 17:13:00;;;;;;;1.33;1.00;;;;;;;;;;5011517;28;20528;-84
2022/08/03 17:16:07;;;;;;;2.03;1.25;;;;;;;;;;5022342;28;20180;-85
2022/08/03 17:19:12;;;;;;;4.30;1.00;;;;;;;;;;5022516;28;20203;-85
2022/08/03 17:22:23;;;;;;;1.83;1.17;;;;;;;;;;5022292;28;20195;-85
2022/08/03 17:25:27;;;;;;;4.70;1.77;;;;;;;;;;4999764;28;20186;-85
2022/08/03 17:28:39;;;;;;;4.38;1.08;;;;;;;;;;4999541;28;20215;-85
2022/08/03 17:31:43;;;;;;;3.33;0.93;;;;;;;;;;4999854;28;20201;-86
2022/08/03 17:34:48;;;;;;;6.72;1.10;;;;;;;;;;5022565;28;20179;-85
2022/08/03 17:37:52;;;;;;;2.83;1.10;;;;;;;;;;5021969;28;20227;-85
2022/08/03 17:40:57;;;;;;;1.83;1.30;;;;;;;;;;5013371;28;20634;-86
2022/08/03 17:44:01;;;;;;;2.92;1.00;;;;;;;;;;4980228;28;20638;-86
2022/08/03 17:47:05;;;;;;;5.97;1.10;;;;;;;;;;5028378;28;20227;-86
2022/08/03 17:50:11;;;;;;;2.45;0.70;;;;;;;;;;5021853;28;20203;-86
2022/08/03 17:53:25;;;;;;;1.10;1.00;;;;;;;;;;4999279;28;20220;-86
2022/08/03 17:57:00;;;;;;;1.25;0.80;;;;;;;;;;5021869;28;20512;-86
2022/08/03 18:03:44;;;;;;;6.72;1.20;;;;;;;;;;5021508;28;20177;-86
2022/08/03 18:06:48;;;;;;;10.25;1.38;;;;;;;;;;5006880;28;20569;-86
2022/08/03 18:09:54;;;;;;;14.52;2.08;;;;;;;;;;4990683;28;20228;-86
2022/08/03 18:13:07;;;;;;;7.82;1.35;;;;;;;;;;5002077;28;20227;-86
2022/08/03 18:16:19;;;;;;;60.35;5.28;;;;;;;;;;4979758;28;20187;-86
2022/08/03 18:19:24;;;;;;;25.05;2.70;;;;;;;;;;5001844;28;20199;-86
2022/08/03 18:22:28;;;;;;;4.03;1.55;;;;;;;;;;4980272;28;20206;-86
2022/08/03 18:25:34;;;;;;;3.67;1.02;;;;;;;;;;5010109;28;20184;-84
2022/08/03 18:28:39;;;;;;;1.20;1.00;;;;;;;;;;5021716;28;20217;-86
2022/08/03 18:31:44;;;;;;;1.58;0.90;;;;;;;;;;4990443;28;20302;-86
2022/08/03 18:34:49;;;;;;;5.63;1.15;;;;;;;;;;4990597;28;20191;-86
2022/08/03 18:37:54;;;;;;;1.73;1.20;;;;;;;;;;5001822;28;20219;-86
2022/08/03 18:40:58;;;;;;;5.95;1.08;;;;;;;;;;5021060;28;20196;-86
2022/08/03 18:44:04;;;;;;;2.95;1.10;;;;;;;;;;4999384;28;20197;-86
2022/08/03 18:47:33;;;;;;;3.35;1.17;;;;;;;;;;5009451;28;20224;-86
2022/08/03 18:50:48;;;;;;;8.02;1.33;;;;;;;;;;5020912;28;20305;-86
2022/08/03 18:54:05;;;;;;;2.65;1.10;;;;;;;;;;5021071;28;20636;-86